Time;durP1;ratioP1;P1;durP2;ratioP2;P2;SDS_P1;SDS_P2;PMS_P1;PMS_P2;Temp;Humidity;BMP_temperature;BMP_pressure;BME280_temperature;BME280_humidity;BME280_pressure;Samples;Min_cycle;Max_cycle;Signal;HPM_P1;HPM_P2
2023/01/12 00:02:09;;;;;;;5.47;2.58;;;;;;;8.10;100.00;100468.03;5134033;28;20219;-73
2023/01/12 00:04:36;;;;;;;5.75;2.53;;;;;;;8.11;100.00;100475.16;5133156;28;20203;-72
2023/01/12 00:07:05;;;;;;;7.80;2.28;;;;;;;8.10;100.00;100460.00;5135696;28;20203;-74
2023/01/12 00:09:32;;;;;;;7.35;3.10;;;;;;;8.08;100.00;100458.31;5133820;28;20229;-72
2023/01/12 00:12:00;;;;;;;5.45;2.50;;;;;;;8.11;100.00;100463.56;5133239;28;20224;-72
2023/01/12 00:14:26;;;;;;;11.48;2.42;;;;;;;8.15;100.00;100467.88;5134163;28;20196;-72
2023/01/12 00:16:53;;;;;;;12.80;2.30;;;;;;;8.20;100.00;100459.69;5134250;28;20227;-73
2023/01/12 00:19:21;;;;;;;6.20;2.78;;;;;;;8.23;100.00;100454.19;5129711;28;20222;-71
2023/01/12 00:21:55;;;;;;;7.97;2.80;;;;;;;8.23;100.00;100452.41;5127696;28;20198;-72
2023/01/12 00:24:23;;;;;;;10.55;2.40;;;;;;;8.26;100.00;100451.44;5134514;28;20191;-72
2023/01/12 00:26:49;;;;;;;7.25;2.17;;;;;;;8.28;100.00;100441.53;5135530;28;20222;-73
2023/01/12 00:29:18;;;;;;;10.18;2.25;;;;;;;8.27;100.00;100450.47;5130871;28;20210;-72
2023/01/12 00:31:45;;;;;;;6.25;2.45;;;;;;;8.22;100.00;100444.41;5133343;28;20289;-73
2023/01/12 00:34:11;;;;;;;8.05;2.92;;;;;;;8.24;100.00;100453.28;5114059;28;20263;-73
2023/01/12 00:36:38;;;;;;;7.47;2.58;;;;;;;8.26;100.00;100438.00;5110030;28;20266;-73
2023/01/12 00:39:05;;;;;;;6.13;2.58;;;;;;;8.27;100.00;100451.34;5103416;28;20207;-72
2023/01/12 00:47:01;;;;;;;8.15;2.60;;;;;;;8.32;100.00;100459.25;5125362;28;20733;-72
2023/01/12 00:49:28;;;;;;;8.43;2.78;;;;;;;8.31;100.00;100438.72;5124277;28;20200;-73
2023/01/12 00:51:54;;;;;;;5.97;2.50;;;;;;;8.31;100.00;100444.09;5123288;28;20199;-72
2023/01/12 00:54:21;;;;;;;6.68;2.38;;;;;;;8.30;100.00;100448.59;5121713;28;20250;-72
2023/01/12 00:56:47;;;;;;;9.32;2.80;;;;;;;8.29;100.00;100440.56;5120490;28;20243;-72
2023/01/12 00:59:14;;;;;;;9.63;2.40;;;;;;;8.28;100.00;100437.03;5118390;28;20293;-72
2023/01/12 01:01:40;;;;;;;11.40;2.60;;;;;;;8.25;100.00;100436.25;5119766;28;20626;-74
2023/01/12 01:04:08;;;;;;;7.18;2.30;;;;;;;8.27;100.00;100435.25;5121066;28;20192;-73
2023/01/12 01:06:37;;;;;;;7.65;1.80;;;;;;;8.34;100.00;100442.19;5125039;28;20720;-74
2023/01/12 01:09:04;;;;;;;9.88;2.60;;;;;;;8.34;100.00;100435.91;5124145;28;20210;-73
2023/01/12 01:11:31;;;;;;;5.93;1.75;;;;;;;8.34;100.00;100452.91;5125332;28;20207;-72
2023/01/12 01:13:58;;;;;;;7.40;2.88;;;;;;;8.34;100.00;100446.66;5126340;28;20263;-72
2023/01/12 01:16:25;;;;;;;9.27;2.50;;;;;;;8.33;100.00;100445.78;5129676;28;20219;-72
2023/01/12 01:18:51;;;;;;;5.65;2.55;;;;;;;8.37;100.00;100441.19;5129672;28;20262;-73
2023/01/12 01:21:19;;;;;;;8.73;2.47;;;;;;;8.39;100.00;100452.75;5129846;28;20581;-72
2023/01/12 01:23:46;;;;;;;7.80;2.95;;;;;;;8.35;100.00;100446.59;5129289;28;20286;-74
2023/01/12 01:26:17;;;;;;;8.48;2.53;;;;;;;8.36;100.00;100444.78;5125496;28;20223;-74
2023/01/12 01:28:44;;;;;;;7.90;2.78;;;;;;;8.38;100.00;100453.66;5124040;28;20199;-74
2023/01/12 01:31:12;;;;;;;10.82;2.70;;;;;;;8.42;100.00;100446.44;5123681;28;20195;-74
2023/01/12 01:33:39;;;;;;;8.55;2.63;;;;;;;8.41;100.00;100440.19;5122563;28;20235;-73
2023/01/12 01:36:06;;;;;;;9.57;2.20;;;;;;;8.46;100.00;100440.88;5121194;28;20233;-72
2023/01/12 01:38:35;;;;;;;12.73;2.47;;;;;;;8.46;100.00;100454.31;5119030;28;20311;-73
2023/01/12 01:41:02;;;;;;;12.00;2.53;;;;;;;8.46;100.00;100450.75;5118761;28;20663;-73
2023/01/12 01:43:29;;;;;;;13.98;2.42;;;;;;;8.45;100.00;100428.38;5118657;28;20207;-72
2023/01/12 01:46:03;;;;;;;6.78;2.30;;;;;;;8.53;100.00;100428.13;5118942;28;20660;-73
2023/01/12 01:48:33;;;;;;;11.98;3.17;;;;;;;8.50;100.00;100420.16;5126202;28;20175;-74
2023/01/12 01:51:05;;;;;;;12.57;2.60;;;;;;;8.54;100.00;100425.38;5126577;28;20202;-72
2023/01/12 01:53:36;;;;;;;8.73;3.08;;;;;;;8.58;100.00;100417.22;5122931;28;20187;-72
2023/01/12 01:56:07;;;;;;;10.98;2.63;;;;;;;8.59;100.00;100421.63;5121948;28;20227;-71
2023/01/12 01:58:38;;;;;;;5.97;2.80;;;;;;;8.58;100.00;100433.31;5122710;28;20238;-73
2023/01/12 02:01:05;;;;;;;6.13;2.17;;;;;;;8.59;100.00;100430.56;5125303;28;20244;-72
2023/01/12 02:03:32;;;;;;;10.85;2.75;;;;;;;8.65;100.00;100421.44;5125231;28;20199;-72
2023/01/12 02:05:59;;;;;;;9.68;2.65;;;;;;;8.68;100.00;100419.50;5126616;28;20285;-72
2023/01/12 02:08:31;;;;;;;9.38;2.85;;;;;;;8.65;100.00;100421.44;5125983;28;20290;-72
2023/01/12 02:11:01;;;;;;;7.22;2.20;;;;;;;8.67;100.00;100419.56;5126713;28;20221;-73
2023/01/12 02:16:22;;;;;;;7.97;2.33;;;;;;;8.70;100.00;100409.56;5103894;28;20289;-72
2023/01/12 02:19:19;;;;;;;6.53;2.30;;;;;;;8.66;100.00;100396.31;5117354;28;20207;-72
2023/01/12 02:22:08;;;;;;;8.07;2.55;;;;;;;8.63;100.00;100404.50;5117592;28;20195;-73
2023/01/12 02:25:13;;;;;;;7.10;1.98;;;;;;;8.72;100.00;100402.34;5118192;28;20233;-73
2023/01/12 02:28:01;;;;;;;11.57;3.10;;;;;;;8.68;100.00;100403.41;5054804;28;20197;-73
2023/01/12 02:30:46;;;;;;;8.65;2.95;;;;;;;8.72;100.00;100388.91;5056456;28;20195;-73
2023/01/12 02:33:29;;;;;;;14.18;2.50;;;;;;;8.73;100.00;100387.13;5056063;28;20233;-72
2023/01/12 02:36:05;;;;;;;8.63;2.08;;;;;;;8.72;100.00;100380.84;5055871;28;20220;-72
2023/01/12 02:38:37;;;;;;;6.97;2.65;;;;;;;8.77;100.00;100377.97;5055509;28;20221;-72
2023/01/12 02:41:15;;;;;;;8.00;2.63;;;;;;;8.75;100.00;100375.38;5055234;28;20203;-71
2023/01/12 02:43:42;;;;;;;6.20;1.92;;;;;;;8.76;100.00;100369.06;5055936;28;20192;-73
2023/01/12 02:46:14;;;;;;;3.90;1.58;;;;;;;8.76;100.00;100373.56;5055925;28;20224;-72
2023/01/12 02:48:46;;;;;;;9.73;2.50;;;;;;;8.75;100.00;100370.00;5053439;28;20198;-71
2023/01/12 02:51:22;;;;;;;5.53;2.40;;;;;;;8.76;100.00;100355.63;5053876;28;20208;-72
2023/01/12 02:53:51;;;;;;;5.93;2.22;;;;;;;8.80;100.00;100371.66;5055223;28;20828;-72
2023/01/12 02:56:22;;;;;;;5.75;1.70;;;;;;;8.78;100.00;100371.69;5054322;28;20530;-73
2023/01/12 02:58:53;;;;;;;13.65;2.47;;;;;;;8.78;100.00;100374.38;5054320;28;20209;-74
2023/01/12 03:01:22;;;;;;;13.82;2.83;;;;;;;8.80;100.00;100359.09;5052548;28;20288;-73
2023/01/12 03:03:51;;;;;;;8.80;2.30;;;;;;;8.80;100.00;100390.44;5069350;28;20300;-73
2023/01/12 03:06:18;;;;;;;10.63;3.40;;;;;;;8.81;100.00;100354.59;5114892;28;20217;-73
2023/01/12 03:08:47;;;;;;;7.22;2.38;;;;;;;8.79;100.00;100373.44;5113677;28;20295;-74
2023/01/12 03:11:16;;;;;;;6.72;2.00;;;;;;;8.81;100.00;100374.25;5115431;28;20285;-72
2023/01/12 03:13:48;;;;;;;9.52;2.40;;;;;;;8.83;100.00;100358.97;5115915;28;20195;-71
2023/01/12 03:16:17;;;;;;;3.95;1.80;;;;;;;8.80;100.00;100348.34;5115219;28;20223;-72
2023/01/12 03:18:50;;;;;;;8.90;1.67;;;;;;;8.83;100.00;100367.03;5114457;28;20631;-74
2023/01/12 03:21:24;;;;;;;7.90;2.00;;;;;;;8.83;100.00;100366.16;5121456;28;20199;-72
2023/01/12 03:23:59;;;;;;;14.35;2.67;;;;;;;8.83;100.00;100353.59;5124477;28;20203;-71
2023/01/12 03:26:29;;;;;;;14.73;3.50;;;;;;;8.83;100.00;100361.66;5122980;28;20297;-70
2023/01/12 03:29:02;;;;;;;9.68;2.20;;;;;;;8.83;100.00;100372.38;5118196;28;20227;-72
2023/01/12 03:31:29;;;;;;;7.05;2.30;;;;;;;8.84;100.00;100359.84;5116853;28;20194;-71
2023/01/12 03:33:57;;;;;;;3.72;1.70;;;;;;;8.81;100.00;100379.63;5115091;28;20203;-73
2023/01/12 03:36:33;;;;;;;10.52;1.90;;;;;;;8.86;100.00;100364.19;5115377;28;20215;-72
2023/01/12 03:39:07;;;;;;;10.00;2.72;;;;;;;8.86;100.00;100341.84;5114722;28;20231;-71
2023/01/12 03:41:42;;;;;;;13.38;2.70;;;;;;;8.87;100.00;100347.16;5115134;28;20613;-73
2023/01/12 03:44:18;;;;;;;6.05;2.60;;;;;;;8.89;100.00;100360.56;5114318;28;20222;-72
2023/01/12 03:46:53;;;;;;;11.57;3.17;;;;;;;8.92;100.00;100344.31;5115402;28;20237;-72
2023/01/12 03:49:26;;;;;;;9.95;2.42;;;;;;;8.92;100.00;100347.84;5115327;28;20236;-71
2023/01/12 03:51:55;;;;;;;7.60;2.97;;;;;;;8.95;100.00;100334.31;5130834;28;20194;-72
2023/01/12 03:54:24;;;;;;;10.48;2.58;;;;;;;8.93;100.00;100344.25;5135025;28;20180;-71
2023/01/12 03:56:53;;;;;;;5.50;1.98;;;;;;;9.00;100.00;100354.72;5133433;28;20291;-71
2023/01/12 03:59:20;;;;;;;6.70;2.25;;;;;;;9.00;100.00;100335.94;5131716;28;20207;-71
2023/01/12 04:01:47;;;;;;;10.68;3.72;;;;;;;8.98;100.00;100339.56;5123236;28;20230;-71
2023/01/12 04:04:14;;;;;;;9.90;2.90;;;;;;;8.97;100.00;100331.56;5119731;28;20199;-73
2023/01/12 04:06:42;;;;;;;5.20;2.22;;;;;;;9.00;100.00;100350.25;5120202;28;20310;-71
2023/01/12 04:09:09;;;;;;;6.30;2.63;;;;;;;9.01;100.00;100322.44;5123849;28;20209;-72
2023/01/12 04:14:19;;;;;;;6.90;2.38;;;;;;;8.96;100.00;100311.88;5126088;28;20198;-73
2023/01/12 04:16:46;;;;;;;7.68;1.90;;;;;;;9.02;100.00;100309.88;5123855;28;20322;-74
2023/01/12 04:19:13;;;;;;;5.15;1.83;;;;;;;9.01;100.00;100329.63;5122679;28;20219;-71
2023/01/12 04:24:25;;;;;;;7.47;1.80;;;;;;;9.03;100.00;100314.34;5126584;28;20198;-72
2023/01/12 04:26:51;;;;;;;13.98;3.10;;;;;;;9.01;100.00;100318.91;5121454;28;20215;-72
2023/01/12 04:29:18;;;;;;;4.95;1.80;;;;;;;9.03;100.00;100295.53;5119505;28;20222;-73
2023/01/12 04:31:44;;;;;;;5.82;2.55;;;;;;;9.04;100.00;100297.28;5120283;28;20575;-71
2023/01/12 04:34:11;;;;;;;13.18;2.50;;;;;;;9.04;100.00;100291.91;5128537;28;20195;-72
2023/01/12 04:36:38;;;;;;;8.38;2.33;;;;;;;9.02;100.00;100288.38;5128936;28;20551;-73
2023/01/12 04:39:05;;;;;;;7.47;3.00;;;;;;;9.03;100.00;100287.47;5127181;28;20215;-73
2023/01/12 04:41:32;;;;;;;4.85;2.05;;;;;;;9.05;100.00;100281.09;5126865;28;20230;-72
2023/01/12 04:43:59;;;;;;;6.93;2.40;;;;;;;9.07;100.00;100283.72;5127187;28;20204;-73
2023/01/12 04:46:26;;;;;;;6.50;2.30;;;;;;;9.05;100.00;100277.53;5126425;28;20215;-72
2023/01/12 04:48:52;;;;;;;9.32;2.58;;;;;;;9.08;100.00;100282.78;5128643;27;20286;-72
2023/01/12 04:51:19;;;;;;;14.45;2.42;;;;;;;9.03;100.00;100304.47;5129171;28;20203;-72
2023/01/12 04:53:47;;;;;;;6.63;2.00;;;;;;;9.06;100.00;100290.03;5134311;28;20207;-71
2023/01/12 04:56:13;;;;;;;7.45;2.45;;;;;;;9.06;100.00;100279.28;5128329;22;20231;-72
2023/01/12 04:58:42;;;;;;;11.27;2.67;;;;;;;9.06;100.00;100273.91;5073579;28;20250;-73
2023/01/12 05:01:09;;;;;;;6.88;2.50;;;;;;;9.07;100.00;100283.72;5072301;28;20681;-72
2023/01/12 05:03:36;;;;;;;8.95;3.08;;;;;;;9.01;100.00;100260.66;5074432;28;20222;-72
2023/01/12 05:06:04;;;;;;;5.82;2.30;;;;;;;9.04;100.00;100265.03;5074804;28;20239;-72
2023/01/12 05:11:15;;;;;;;10.13;2.85;;;;;;;9.03;100.00;100244.50;5074066;28;20241;-73
2023/01/12 05:13:43;;;;;;;12.27;2.92;;;;;;;9.03;100.00;100252.56;5074015;28;20577;-73
2023/01/12 05:16:11;;;;;;;6.00;1.83;;;;;;;9.03;100.00;100248.03;5078546;28;20311;-76
2023/01/12 05:18:38;;;;;;;6.57;2.30;;;;;;;8.98;100.00;100258.13;5073726;28;20628;-73
2023/01/12 05:21:05;;;;;;;7.25;2.53;;;;;;;9.01;100.00;100232.94;5074540;28;20536;-72
2023/01/12 05:23:31;;;;;;;8.68;2.42;;;;;;;9.01;100.00;100225.75;5074856;28;20469;-72
2023/01/12 05:25:59;;;;;;;6.93;2.40;;;;;;;8.96;100.00;100233.13;5074671;28;20735;-73
2023/01/12 05:28:27;;;;;;;6.57;2.22;;;;;;;8.97;100.00;100221.44;5074231;28;20199;-72
2023/01/12 05:30:55;;;;;;;4.07;1.70;;;;;;;9.00;100.00;100228.47;5073912;28;20208;-72
2023/01/12 05:33:21;;;;;;;15.55;2.58;;;;;;;8.96;100.00;100231.31;5073420;28;20192;-74
2023/01/12 05:35:48;;;;;;;7.20;1.92;;;;;;;8.97;100.00;100233.03;5074005;28;20759;-76
2023/01/12 05:38:15;;;;;;;9.10;3.08;;;;;;;8.98;100.00;100223.19;5070912;28;20213;-72
2023/01/12 05:40:41;;;;;;;11.65;2.67;;;;;;;8.93;100.00;100214.44;5067065;28;20550;-74
2023/01/12 05:46:01;;;;;;;5.90;2.33;;;;;;;8.96;100.00;100201.75;5053983;28;20223;-74
2023/01/12 05:48:27;;;;;;;5.15;1.92;;;;;;;8.98;100.00;100202.56;5074466;28;20530;-75
2023/01/12 05:50:54;;;;;;;3.95;1.80;;;;;;;9.00;100.00;100207.00;5064579;28;20193;-73
2023/01/12 05:53:20;;;;;;;6.80;2.00;;;;;;;8.98;100.00;100207.09;5077684;28;20209;-73
2023/01/12 05:55:47;;;;;;;12.25;2.47;;;;;;;8.99;100.00;100208.81;5075574;28;20323;-73
2023/01/12 05:58:13;;;;;;;9.60;2.65;;;;;;;8.98;100.00;100210.63;5088995;28;20220;-74
2023/01/12 06:00:40;;;;;;;7.20;2.50;;;;;;;8.98;100.00;100202.56;5084088;28;20205;-75
2023/01/12 06:03:08;;;;;;;8.93;3.15;;;;;;;8.99;100.00;100208.81;5079196;28;20272;-75
2023/01/12 06:05:34;;;;;;;6.93;2.45;;;;;;;8.98;100.00;100210.63;5085499;28;20578;-75
2023/01/12 06:08:01;;;;;;;7.65;2.33;;;;;;;9.04;100.00;100205.94;5057717;28;20208;-74
2023/01/12 06:10:28;;;;;;;7.93;1.88;;;;;;;9.06;100.00;100212.97;5077129;28;20640;-74
2023/01/12 06:15:39;;;;;;;6.30;2.45;;;;;;;9.04;100.00;100205.94;5059595;28;20236;-74
2023/01/12 06:18:05;;;;;;;8.18;2.38;;;;;;;9.01;100.00;100189.97;5052583;28;20586;-74
2023/01/12 06:20:33;;;;;;;9.57;2.78;;;;;;;8.95;100.00;100178.53;5054649;28;20675;-74
2023/01/12 06:23:00;;;;;;;7.90;2.85;;;;;;;9.01;100.00;100181.91;5056065;28;20208;-74
2023/01/12 06:25:28;;;;;;;10.75;2.90;;;;;;;8.97;100.00;100190.06;5093163;28;20216;-75
2023/01/12 06:27:55;;;;;;;7.47;2.70;;;;;;;8.96;100.00;100191.03;5093588;28;20204;-74
2023/01/12 06:30:23;;;;;;;7.35;2.05;;;;;;;8.98;100.00;100178.41;5082932;28;20662;-73
2023/01/12 06:32:50;;;;;;;5.80;1.95;;;;;;;8.96;100.00;100174.91;5068030;28;20202;-73
2023/01/12 06:35:17;;;;;;;4.70;1.98;;;;;;;8.96;100.00;100169.53;5069608;28;20203;-72
2023/01/12 06:37:44;;;;;;;5.30;2.22;;;;;;;8.92;100.00;100167.91;5065322;28;20192;-72
2023/01/12 06:40:12;;;;;;;6.93;2.00;;;;;;;8.93;100.00;100177.72;5074879;28;20642;-75
2023/01/12 06:42:40;;;;;;;5.50;1.98;;;;;;;8.92;100.00;100157.16;5082687;28;20204;-76
2023/01/12 06:45:08;;;;;;;9.48;2.40;;;;;;;8.90;100.00;100158.16;5068934;28;20253;-74
2023/01/12 06:47:44;;;;;;;3.95;1.75;;;;;;;9.00;100.00;100156.84;5074715;28;20196;-71
2023/01/12 06:50:11;;;;;;;39.53;16.50;;;;;;;9.29;100.00;100146.63;5065931;28;20184;-73
2023/01/12 06:52:37;;;;;;;9.95;2.97;;;;;;;9.06;100.00;100151.19;5058362;28;20197;-76
2023/01/12 06:55:06;;;;;;;5.22;2.30;;;;;;;8.97;100.00;100139.03;5069860;28;20283;-74
2023/01/12 06:57:33;;;;;;;6.50;1.67;;;;;;;8.92;100.00;100148.25;5068236;28;20200;-76
2023/01/12 06:59:59;;;;;;;14.43;2.30;;;;;;;8.90;100.00;100148.28;5071868;28;20213;-74
2023/01/12 07:02:26;;;;;;;8.30;1.83;;;;;;;8.88;100.00;100136.75;5059850;28;20568;-75
2023/01/12 07:04:52;;;;;;;8.38;2.78;;;;;;;8.79;100.00;100147.00;5052961;28;20682;-74
2023/01/12 07:07:19;;;;;;;5.50;1.90;;;;;;;8.72;100.00;100135.66;5051985;28;20320;-75
2023/01/12 07:09:45;;;;;;;8.07;2.28;;;;;;;8.61;100.00;100138.78;5051792;28;20225;-74
2023/01/12 07:12:13;;;;;;;7.90;2.30;;;;;;;8.65;100.00;100147.59;5053229;28;20697;-76
2023/01/12 07:14:40;;;;;;;3.97;1.92;;;;;;;8.60;100.00;100138.84;5052724;28;20199;-75
2023/01/12 07:17:06;;;;;;;9.40;2.55;;;;;;;8.58;100.00;100127.31;5055041;28;20220;-75
2023/01/12 07:19:33;;;;;;;13.63;3.47;;;;;;;8.60;100.00;100141.53;5052014;28;20311;-75
2023/01/12 07:21:59;;;;;;;6.80;2.08;;;;;;;8.68;100.00;100140.28;5052855;28;20197;-75
2023/01/12 07:24:26;;;;;;;7.60;2.05;;;;;;;8.75;100.00;100128.34;5053744;28;20280;-76
2023/01/12 07:26:52;;;;;;;7.78;2.70;;;;;;;8.75;100.00;100130.13;5058735;28;20576;-75
2023/01/12 07:29:20;;;;;;;11.98;2.30;;;;;;;8.80;100.00;100130.84;5068015;28;20197;-75
2023/01/12 07:31:48;;;;;;;6.20;2.28;;;;;;;8.73;100.00;100116.81;5076201;28;20200;-75
2023/01/12 07:34:15;;;;;;;5.80;1.67;;;;;;;8.66;100.00;100115.31;5075953;28;20196;-75
2023/01/12 07:36:41;;;;;;;5.20;1.52;;;;;;;8.68;100.00;100110.75;5071594;28;20255;-75
2023/01/12 07:39:09;;;;;;;9.43;2.10;;;;;;;8.62;100.00;100118.19;5054736;28;20220;-74
2023/01/12 07:44:21;;;;;;;8.27;1.75;;;;;;;8.49;100.00;100105.28;5055477;28;20247;-74
2023/01/12 07:46:48;;;;;;;4.93;1.55;;;;;;;8.42;100.00;100122.56;5068300;28;20223;-74
2023/01/12 07:49:14;;;;;;;5.05;1.65;;;;;;;8.36;100.00;100096.81;5072957;28;20547;-75
2023/01/12 07:51:41;;;;;;;7.15;1.90;;;;;;;8.35;100.00;100102.25;5075212;28;20662;-74
2023/01/12 07:54:07;;;;;;;6.95;1.73;;;;;;;8.35;100.00;100102.25;5074847;28;20228;-74
2023/01/12 07:56:34;;;;;;;7.55;2.50;;;;;;;8.29;100.00;100102.50;5073949;28;20240;-74
2023/01/12 07:59:01;;;;;;;5.88;1.80;;;;;;;8.28;100.00;100106.13;5073671;28;20224;-74
2023/01/12 08:01:31;;;;;;;4.82;1.75;;;;;;;8.25;100.00;100109.78;5075511;28;20205;-73
2023/01/12 08:03:57;;;;;;;6.93;1.30;;;;;;;8.24;100.00;100112.56;5073850;28;20342;-75
2023/01/12 08:06:24;;;;;;;2.08;1.10;;;;;;;8.21;100.00;100124.28;5055300;28;20224;-74
2023/01/12 08:08:53;;;;;;;2.63;0.80;;;;;;;8.24;100.00;100124.16;5055391;28;20579;-75
2023/01/12 08:11:20;;;;;;;6.05;1.25;;;;;;;8.21;100.00;100115.34;5060187;28;20673;-75
2023/01/12 08:13:46;;;;;;;4.65;1.65;;;;;;;8.15;100.00;100117.34;5056277;28;20280;-74
2023/01/12 08:16:16;;;;;;;3.40;1.20;;;;;;;8.15;100.00;100128.06;5056047;28;20243;-74
2023/01/12 08:18:49;;;;;;;4.07;1.60;;;;;;;8.25;100.00;100122.34;5054699;28;20204;-71
2023/01/12 08:21:22;;;;;;;6.75;2.15;;;;;;;8.44;100.00;100123.38;5055519;28;20188;-70
2023/01/12 08:23:51;;;;;;;28.02;12.85;;;;;;;8.42;100.00;100127.94;5054882;28;20194;-70
2023/01/12 08:26:23;;;;;;;3.80;1.73;;;;;;;8.31;100.00;100140.88;5054826;28;20217;-73
2023/01/12 08:28:56;;;;;;;3.33;1.60;;;;;;;8.07;100.00;100142.72;5062547;28;20184;-74
2023/01/12 08:31:24;;;;;;;4.13;1.50;;;;;;;8.04;100.00;100132.13;5077216;28;20204;-74
2023/01/12 08:33:54;;;;;;;2.67;0.95;;;;;;;8.05;100.00;100118.66;5080760;28;20199;-73
2023/01/12 08:36:22;;;;;;;4.45;1.10;;;;;;;8.03;100.00;100133.94;5076817;28;20228;-74
2023/01/12 08:38:49;;;;;;;7.22;2.17;;;;;;;8.07;100.00;100116.78;5074538;28;20232;-74
2023/01/12 08:41:36;;;;;;;3.45;1.20;;;;;;;8.01;100.00;100125.06;5057099;28;20601;-74
2023/01/12 08:44:05;;;;;;;5.72;1.30;;;;;;;8.03;100.00;100120.53;5070113;28;20260;-73
2023/01/12 08:46:34;;;;;;;4.43;1.20;;;;;;;8.05;100.00;100115.06;5063092;28;20221;-73
2023/01/12 08:49:03;;;;;;;4.50;1.80;;;;;;;8.06;100.00;100104.28;5072905;28;20207;-72
2023/01/12 08:51:29;;;;;;;4.70;1.20;;;;;;;8.10;100.00;100119.34;5073866;28;20775;-73
2023/01/12 08:53:56;;;;;;;2.75;1.05;;;;;;;8.15;100.00;100109.28;5065792;28;20193;-73
2023/01/12 08:56:22;;;;;;;3.15;0.85;;;;;;;8.20;100.00;100119.84;5053980;28;20307;-73
2023/01/12 08:58:49;;;;;;;2.20;1.10;;;;;;;8.25;100.00;100117.84;5053255;28;20232;-73
2023/01/12 09:01:18;;;;;;;3.38;1.35;;;;;;;8.20;100.00;100143.13;5036106;28;20209;-73
2023/01/12 09:03:45;;;;;;;4.85;1.33;;;;;;;8.21;100.00;100113.56;5055121;28;20566;-73
2023/01/12 09:06:15;;;;;;;2.97;1.48;;;;;;;8.19;100.00;100152.13;5054776;28;20213;-74
2023/01/12 09:08:42;;;;;;;2.63;1.30;;;;;;;8.27;100.00;100128.50;5055842;28;20206;-74
2023/01/12 09:11:10;;;;;;;3.00;2.13;;;;;;;8.24;100.00;100125.97;5054503;28;20569;-74
2023/01/12 09:13:37;;;;;;;2.85;1.23;;;;;;;8.32;100.00;100126.50;5058603;28;20197;-73
2023/01/12 09:16:05;;;;;;;1.60;1.17;;;;;;;8.32;100.00;100127.41;5074127;28;20242;-73
2023/01/12 09:18:31;;;;;;;3.28;0.98;;;;;;;8.35;100.00;100118.34;5073192;28;20688;-73
2023/01/12 09:21:02;;;;;;;1.50;1.00;;;;;;;8.26;100.00;100126.78;5065219;28;20219;-73
2023/01/12 09:23:30;;;;;;;5.03;1.08;;;;;;;8.29;100.00;100140.94;5070276;28;20201;-73
2023/01/12 09:25:56;;;;;;;3.10;1.40;;;;;;;8.25;100.00;100127.69;5073093;28;20693;-73
2023/01/12 09:28:23;;;;;;;2.03;1.05;;;;;;;8.24;100.00;100136.69;5072501;28;20295;-74
2023/01/12 09:30:50;;;;;;;5.15;1.45;;;;;;;8.18;100.00;100151.22;5075146;28;20727;-73
2023/01/12 09:33:16;;;;;;;2.85;1.00;;;;;;;8.21;100.00;100160.94;5083251;28;20223;-73
2023/01/12 09:35:43;;;;;;;3.78;1.38;;;;;;;8.18;100.00;100147.66;5082382;28;20222;-73
2023/01/12 09:38:10;;;;;;;2.70;1.17;;;;;;;8.18;100.00;100155.72;5079637;28;20212;-73
2023/01/12 09:40:42;;;;;;;5.10;1.33;;;;;;;8.14;100.00;100158.53;5067359;28;20227;-73
2023/01/12 09:48:53;;;;;;;1.88;1.17;;;;;;;8.24;100.00;100147.44;5010407;28;20195;-74
2023/01/12 09:51:28;;;;;;;6.35;1.23;;;;;;;8.27;100.00;100136.56;5001188;28;20226;-74
2023/01/12 09:53:55;;;;;;;2.95;1.30;;;;;;;8.29;100.00;100140.06;4994276;28;20210;-73
2023/01/12 09:56:29;;;;;;;3.13;1.30;;;;;;;8.37;100.00;100137.97;4992679;28;20230;-73
2023/01/12 09:59:19;;;;;;;3.70;1.17;;;;;;;8.35;100.00;100135.31;4994116;28;20191;-73
2023/01/12 10:01:46;;;;;;;4.80;1.23;;;;;;;8.33;100.00;100136.31;4994478;28;20210;-73
2023/01/12 10:04:13;;;;;;;3.70;1.15;;;;;;;8.36;100.00;100133.50;4995233;28;20210;-73
2023/01/12 10:06:40;;;;;;;2.05;1.10;;;;;;;8.37;100.00;100129.91;4996477;28;20223;-73
2023/01/12 10:09:13;;;;;;;5.18;1.33;;;;;;;8.51;100.00;100135.59;4995137;28;20723;-73
2023/01/12 10:11:47;;;;;;;2.33;1.25;;;;;;;8.50;100.00;100141.94;4996744;28;20580;-73
2023/01/12 10:14:40;;;;;;;5.05;1.45;;;;;;;8.62;100.00;100145.03;4995808;28;20192;-73
2023/01/12 10:17:16;;;;;;;2.85;1.00;;;;;;;8.64;100.00;100151.19;5004133;28;20226;-74
2023/01/12 10:19:50;;;;;;;6.15;1.50;;;;;;;8.55;100.00;100147.97;4993067;28;20732;-73
2023/01/12 10:22:35;;;;;;;3.75;1.30;;;;;;;8.52;100.00;100133.78;5002217;28;20657;-74
2023/01/12 10:25:05;;;;;;;4.53;1.10;;;;;;;8.52;100.00;100164.22;5051930;28;20662;-73
2023/01/12 10:27:40;;;;;;;2.05;1.02;;;;;;;8.65;100.00;100147.59;5033902;28;20635;-73
2023/01/12 10:30:12;;;;;;;5.38;1.30;;;;;;;8.64;100.00;100129.72;5067860;28;20199;-74
2023/01/12 10:32:39;;;;;;;6.57;1.60;;;;;;;8.61;100.00;100160.25;5053438;28;20201;-73
2023/01/12 10:35:14;;;;;;;6.97;1.45;;;;;;;8.66;100.00;100154.69;5051721;28;20201;-72
2023/01/12 10:37:45;;;;;;;3.67;1.20;;;;;;;8.60;100.00;100145.09;5051724;28;20230;-75
2023/01/12 10:40:23;;;;;;;2.35;1.25;;;;;;;8.72;100.00;100149.94;5051829;28;20594;-73
2023/01/12 10:45:42;;;;;;;2.53;1.52;;;;;;;8.79;100.00;100136.28;5052880;28;20230;-73
2023/01/12 10:48:19;;;;;;;5.30;1.45;;;;;;;8.78;100.00;100135.41;5063060;28;20193;-73
2023/01/12 10:50:57;;;;;;;3.60;1.25;;;;;;;8.81;100.00;100137.06;5051537;28;20557;-74
2023/01/12 10:53:30;;;;;;;2.75;1.25;;;;;;;8.79;100.00;100131.75;5052223;28;20537;-74
2023/01/12 10:55:58;;;;;;;3.55;1.52;;;;;;;8.79;100.00;100126.38;5054966;28;20224;-71
2023/01/12 10:58:30;;;;;;;11.80;6.80;;;;;;;8.91;100.00;100139.31;5074667;28;20654;-74
2023/01/12 11:00:58;;;;;;;2.25;0.90;;;;;;;8.74;100.00;100139.16;5081287;28;20201;-73
2023/01/12 11:03:33;;;;;;;2.85;1.08;;;;;;;8.64;100.00;100152.09;5071586;28;20192;-72
2023/01/12 11:06:15;;;;;;;2.15;1.08;;;;;;;8.56;100.00;100136.28;5078374;28;20223;-73
2023/01/12 11:08:42;;;;;;;5.10;1.40;;;;;;;8.54;100.00;100137.28;5073437;28;20196;-72
2023/01/12 11:11:22;;;;;;;6.65;1.63;;;;;;;8.49;100.00;100137.47;5073475;28;20283;-73
2023/01/12 11:13:53;;;;;;;3.55;1.15;;;;;;;8.49;100.00;100132.09;5074048;28;20200;-73
2023/01/12 11:16:23;;;;;;;2.47;1.05;;;;;;;8.50;100.00;100128.50;5075490;28;20239;-73
2023/01/12 11:18:58;;;;;;;2.38;1.30;;;;;;;8.51;100.00;100130.25;5089985;28;20286;-73
2023/01/12 11:21:29;;;;;;;4.30;1.20;;;;;;;8.52;100.00;100120.38;5077707;28;20322;-72
2023/01/12 11:24:01;;;;;;;3.78;1.38;;;;;;;8.46;100.00;100118.81;5075618;28;20227;-72
2023/01/12 11:26:34;;;;;;;2.67;1.20;;;;;;;8.50;100.00;100128.50;5066884;28;20783;-71
2023/01/12 11:29:14;;;;;;;1.70;1.00;;;;;;;8.54;100.00;100118.50;5072986;28;20201;-71
2023/01/12 11:31:43;;;;;;;3.67;0.98;;;;;;;8.62;100.00;100128.94;5080790;28;20196;-72
2023/01/12 11:34:16;;;;;;;3.70;0.88;;;;;;;8.61;100.00;100105.69;5072475;28;20292;-72
2023/01/12 11:36:47;;;;;;;2.78;1.15;;;;;;;8.63;100.00;100110.06;5055766;28;20217;-73
2023/01/12 11:39:18;;;;;;;2.45;0.85;;;;;;;8.64;100.00;100105.56;5062431;28;20220;-73
2023/01/12 11:44:37;;;;;;;3.65;0.90;;;;;;;8.74;100.00;100098.88;5074013;28;20390;-74
2023/01/12 11:47:06;;;;;;;39.08;22.98;;;;;;;9.09;100.00;100100.03;5075340;28;20225;-68
2023/01/12 11:49:40;;;;;;;1.63;0.90;;;;;;;9.02;100.00;100095.00;5058293;28;20190;-71
2023/01/12 11:52:10;;;;;;;3.35;0.90;;;;;;;8.94;100.00;100101.56;5067293;28;20258;-74
2023/01/12 11:54:39;;;;;;;1.20;0.60;;;;;;;9.00;100.00;100099.56;5075719;28;20279;-74
2023/01/12 11:57:27;;;;;;;1.30;0.60;;;;;;;9.06;100.00;100112.72;5075097;28;20228;-73
2023/01/12 12:00:11;;;;;;;1.20;0.60;;;;;;;9.12;100.00;100097.22;5074643;28;20219;-72
2023/01/12 12:02:41;;;;;;;2.63;0.77;;;;;;;9.14;100.00;100094.47;5074980;28;20181;-72
2023/01/12 12:05:27;;;;;;;1.83;0.75;;;;;;;9.14;100.00;100094.47;5072790;28;20284;-73
2023/01/12 12:08:10;;;;;;;1.83;0.70;;;;;;;9.14;100.00;100091.78;5061294;28;20212;-71
2023/01/12 12:10:44;;;;;;;2.35;0.75;;;;;;;9.19;100.00;100095.13;5072549;28;20578;-72
2023/01/12 12:13:27;;;;;;;1.45;0.70;;;;;;;9.17;100.00;100086.25;5066911;28;20673;-72